Data for 01/11/2016

Time Sea-Level Adjusted Pressure Absolute Pressure Temperature Relative Humidity Dew Point   
(mb) (inHg) (mb) (inHg) (C) (F) (%) (C) (F)
00:05 1022 30.18 852 25.16 -9.3 15.2 70 -13.9 7
00:10 1022 30.18 851 25.13 -9.3 15.2 68 -14.2 6.4
00:15 1022 30.18 852 25.16 -9.2 15.5 68 -14.1 6.7
00:20 1022 30.18 851 25.13 -9.2 15.4 69 -13.9 6.9
00:25 1022 30.18 851 25.13 -9.2 15.5 71 -13.6 7.5
00:30 1022 30.18 851 25.13 -9.3 15.4 68 -14.2 6.5
00:35 1022 30.18 851 25.13 -9.4 15.1 68 -14.2 6.5
00:40 1022 30.18 851 25.13 -9.3 15.4 71 -13.5 7.6
00:45 1022 30.18 851 25.13 -9 15.9 74 -12.8 9
00:50 1022 30.18 851 25.13 -9.2 15.5 68 -13.9 6.9
00:55 1022 30.18 851 25.13 -9.5 14.9 69 -14.2 6.5
01:00 1022 30.18 851 25.13 -9.9 14.2 69 -14.5 5.9
01:05 1022 30.18 851 25.13 -9.6 14.7 71 -13.9 7
01:10 1022 30.18 851 25.13 -9.1 15.7 69 -13.8 7.1
01:15 1022 30.18 851 25.13 -8.8 16.2 68 -13.7 7.3
01:20 1022 30.18 851 25.13 -9 15.9 68 -13.8 7.1
01:25 1022 30.18 851 25.13 -8.9 15.9 67 -14 6.8
01:30 1022 30.18 851 25.13 -9.3 15.3 67 -14.3 6.3
01:35 1022 30.18 851 25.13 -9.7 14.5 69 -14.3 6.2
01:40 1022 30.18 851 25.13 -9.6 14.7 69 -14.3 6.3
01:45 1022 30.18 851 25.13 -9.7 14.5 71 -14.1 6.6
01:50 1022 30.18 851 25.13 -9.7 14.5 70 -14.2 6.4
01:55 1022 30.18 851 25.13 -9.4 15.1 77 -12.8 9
02:00 1022 30.18 851 25.13 -9.1 15.6 70 -13.7 7.4
02:05 1022 30.18 851 25.13 -9.3 15.2 68 -14.1 6.6
02:10 1022 30.18 851 25.13 -9.5 14.9 69 -14.2 6.5
02:15 1022 30.18 851 25.13 -9.4 15 70 -14 6.8
02:20 1022 30.18 851 25.13 -9.7 14.5 71 -14 6.9
02:25 1022 30.18 851 25.13 -9.7 14.6 69 -14.4 6.2
02:30 1022 30.18 851 25.13 -9.7 14.5 69 -14.3 6.2
02:35 1022 30.18 851 25.13 -9.8 14.3 70 -14.3 6.3
02:40 1022 30.18 851 25.13 -9.8 14.4 71 -14.2 6.5
02:45 1022 30.18 851 25.13 -9.9 14.2 74 -13.7 7.4
02:50 1022 30.18 851 25.13 -10 14.1 70 -14.4 6
02:55 1022 30.18 851 25.13 -9.9 14.1 68 -14.9 5.2
03:00 1022 30.18 851 25.13 -10.1 13.9 68 -14.8 5.3
03:05 1022 30.18 851 25.13 -10.5 13.2 72 -14.6 5.8
03:10 1022 30.18 851 25.13 -10.5 13.2 73 -14.4 6
03:15 1022 30.18 851 25.13 -10.2 13.7 71 -14.5 6
03:20 1022 30.18 851 25.13 -9.9 14.2 68 -14.7 5.5
03:25 1022 30.18 851 25.13 -9.9 14.2 68 -14.7 5.5
03:30 1022 30.18 851 25.13 -10.2 13.7 70 -14.7 5.6
03:35 1022 30.18 851 25.13 -10.2 13.6 70 -14.7 5.5
03:40 1022 30.18 851 25.13 -10.4 13.3 70 -14.9 5.2
03:45 1022 30.18 851 25.13 -10.6 12.9 71 -14.9 5.2
03:50 1022 30.18 851 25.13 -10.6 13 71 -14.9 5.2
03:55 1022 30.18 851 25.13 -10.6 13 73 -14.5 5.9
04:00 1022 30.18 851 25.13 -10.2 13.6 71 -14.6 5.8
04:05 1022 30.18 851 25.13 -10.2 13.7 71 -14.4 6
04:10 1022 30.18 851 25.13 -10.1 13.9 72 -14.1 6.5
04:15 1022 30.18 851 25.13 -10 14 71 -14.4 6.1
04:20 1022 30.18 851 25.13 -10.3 13.5 71 -14.6 5.7
04:25 1022 30.18 851 25.13 -10.6 13 72 -14.7 5.6
04:30 1022 30.18 852 25.16 -10.7 12.7 72 -14.9 5.2
04:35 1022 30.18 852 25.16 -10.9 12.5 72 -15 5
04:40 1022 30.18 851 25.13 -11 12.1 72 -15.1 4.9
04:45 1022 30.18 851 25.13 -10.8 12.6 73 -14.7 5.5
04:50 1022 30.18 851 25.13 -10.7 12.7 72 -14.9 5.2
04:55 1022 30.18 851 25.13 -11 12.2 74 -14.7 5.5
05:00 1022 30.18 851 25.13 -11 12.1 73 -14.9 5.1
05:05 1022 30.18 851 25.13 -11 12.2 73 -15 5
05:10 1022 30.18 851 25.13 -10.7 12.7 73 -14.7 5.6
05:15 1022 30.18 851 25.13 -10.6 13 72 -14.6 5.7
05:20 1022 30.18 851 25.13 -10.4 13.3 72 -14.5 6
05:25 1022 30.18 851 25.13 -10.6 12.9 73 -14.6 5.8
05:30 1022 30.18 851 25.13 -10.7 12.7 73 -14.7 5.6
05:35 1022 30.18 851 25.13 -10.9 12.4 71 -15.1 4.8
05:40 1022 30.18 851 25.13 -11.4 11.5 76 -14.8 5.3
05:45 1022 30.18 851 25.13 -11.1 12 75 -14.8 5.4
05:50 1022 30.18 851 25.13 -10.9 12.4 74 -14.6 5.7
05:55 1022 30.18 851 25.13 -10.6 13 71 -14.8 5.4
06:00 1022 30.18 851 25.13 -10.4 13.3 73 -14.3 6.2
06:05 1022 30.18 851 25.13 -10.7 12.7 74 -14.4 6
06:10 1022 30.18 851 25.13 -10.7 12.7 75 -14.3 6.2
06:15 1022 30.18 851 25.13 -10.2 13.6 73 -14.2 6.5
06:20 1022 30.18 851 25.13 -10.1 13.8 73 -14.1 6.6
06:25 1022 30.18 851 25.13 -10.1 13.9 72 -14.2 6.4
06:30 1022 30.18 851 25.13 -10.2 13.7 72 -14.3 6.3
06:35 1022 30.18 851 25.13 -10.4 13.2 74 -14.3 6.3
06:40 1022 30.18 851 25.13 -11.1 11.9 75 -14.7 5.5
06:45 1022 30.18 851 25.13 -11.5 11.3 77 -14.8 5.3
06:50 1022 30.18 851 25.13 -11.4 11.5 76 -14.8 5.4
06:55 1022 30.18 851 25.13 -11.5 11.4 77 -14.8 5.3
07:00 1022 30.18 851 25.13 -11 12.1 75 -14.6 5.7
07:05 1022 30.18 851 25.13 -10.7 12.8 74 -14.4 6.1
07:10 1022 30.18 851 25.13 -11.2 11.9 76 -14.6 5.7
07:15 1022 30.18 851 25.13 -11.2 11.8 76 -14.6 5.7
07:20 1022 30.18 851 25.13 -11.3 11.7 75 -14.8 5.3
07:25 1022 30.18 851 25.13 -11.1 11.9 75 -14.7 5.5
07:30 1022 30.18 851 25.13 -11.2 11.9 75 -14.8 5.4
07:35 1022 30.18 851 25.13 -11.4 11.5 75 -15 5
07:40 1022 30.18 851 25.13 -11.9 10.6 77 -15.2 4.7
07:45 1022 30.18 851 25.13 -12.3 9.9 79 -15.2 4.6
07:50 1022 30.18 851 25.13 -12.1 10.2 80 -14.8 5.3
07:55 1022 30.18 851 25.13 -12.2 10.1 79 -15.2 4.7
08:00 1022 30.18 851 25.13 -12.2 10.1 76 -15.5 4
08:05 1022 30.18 851 25.13 -12.4 9.8 80 -15.2 4.6
08:10 1022 30.18 851 25.13 -11.8 10.8 76 -15.1 4.7
08:15 1022 30.18 851 25.13 -11.7 11 75 -15.2 4.6
08:20 1022 30.18 851 25.13 -11.8 10.8 76 -15.1 4.8
08:25 1022 30.18 851 25.13 -11.9 10.7 78 -15 5
08:30 1022 30.18 851 25.13 -12.2 10 79 -15.2 4.7
08:35 1022 30.18 851 25.13 -12.2 10 78 -15.3 4.4
08:40 1022 30.18 851 25.13 -12.4 9.7 76 -15.8 3.5
08:45 1022 30.18 851 25.13 -12.7 9.1 80 -15.5 4.2
08:50 1022 30.18 851 25.13 -12.6 9.3 78 -15.7 3.7
08:55 1022 30.18 851 25.13 -12.3 9.9 77 -15.5 4.1
09:00 1022 30.18 851 25.13 -11.8 10.7 76 -15.2 4.6
09:05 1022 30.18 851 25.13 -12.1 10.2 77 -15.4 4.3
09:10 1022 30.18 851 25.13 -12.6 9.4 80 -15.3 4.4
09:15 1022 30.18 851 25.13 -12.7 9.1 79 -15.7 3.7
09:20 1022 30.18 851 25.13 -12.6 9.3 82 -15.1 4.8
09:25 1022 30.18 851 25.13 -12.1 10.2 79 -15.1 4.7
09:30 1022 30.18 851 25.13 -11.4 11.5 78 -14.6 5.7
09:35 1022 30.18 851 25.13 -11.2 11.8 75 -14.7 5.5
09:40 1022 30.18 852 25.16 -11.2 11.9 74 -14.9 5.2
09:45 1022 30.18 852 25.16 -11.1 12.1 77 -14.3 6.2
09:50 1022 30.18 851 25.13 -11.3 11.7 75 -14.9 5.2
09:55 1022 30.18 851 25.13 -11.4 11.5 73 -15.3 4.4
10:00 1022 30.18 852 25.16 -11.7 11 78 -14.8 5.4
10:05 1022 30.18 852 25.16 -11.3 11.6 73 -15.2 4.6
10:10 1022 30.18 852 25.16 -11.6 11.2 74 -15.4 4.3
10:15 1022 30.18 852 25.16 -11.2 11.8 76 -14.6 5.7
10:20 1022 30.18 852 25.16 -10.8 12.6 72 -14.8 5.3
10:25 1023 30.21 852 25.16 -10.7 12.8 70 -15.1 4.7
10:30 1022 30.18 852 25.16 -10.5 13.1 69 -15.1 4.8
10:35 1022 30.18 852 25.16 -10.3 13.6 67 -15.2 4.6
10:40 1022 30.18 852 25.16 -9.7 14.6 65 -15.1 4.9
10:45 1022 30.18 852 25.16 -9.7 14.5 66 -14.8 5.3
10:50 1022 30.18 852 25.16 -9.6 14.8 64 -15.1 4.8
10:55 1023 30.21 852 25.16 -8.5 16.7 61 -14.7 5.6
11:00 1022 30.18 852 25.16 -7.7 18.1 59 -14.5 5.9
11:05 1023 30.21 852 25.16 -7.1 19.3 56 -14.3 6.2
11:10 1023 30.21 852 25.16 -6.7 20 56 -14.2 6.5
11:15 1023 30.21 852 25.16 -6.4 20.4 56 -13.9 6.9
11:20 1022 30.18 852 25.16 -7 19.5 58 -13.9 6.9
11:25 1022 30.18 852 25.16 -6.6 20.1 56 -14.1 6.7
11:30 1022 30.18 852 25.16 -6.2 20.8 56 -13.7 7.4
11:35 1023 30.21 852 25.16 -6.3 20.7 56 -13.8 7.2
11:40 1022 30.18 852 25.16 -6.2 20.9 55 -13.8 7.2
11:45 1023 30.21 852 25.16 -5.9 21.3 55 -13.5 7.6
11:50 1023 30.21 852 25.16 -5.7 21.8 53 -13.8 7.2
11:55 1022 30.18 852 25.16 -5 23 50 -13.9 7
12:00 1022 30.18 852 25.16 -4.3 24.2 49 -13.5 7.7
12:05 1022 30.18 851 25.13 -4.4 24 49 -13.6 7.6
12:10 1022 30.18 851 25.13 -4.2 24.4 49 -13.5 7.7
12:15 1022 30.18 851 25.13 -3.9 24.9 46 -13.9 7
12:20 1022 30.18 851 25.13 -4.5 23.9 50 -13.3 8
12:25 1022 30.18 851 25.13 -4.6 23.8 49 -13.7 7.3
12:30 1022 30.18 851 25.13 -4.1 24.6 48 -13.5 7.7
12:35 1022 30.18 851 25.13 -4.1 24.7 50 -13 8.6
12:40 1022 30.18 851 25.13 -4.6 23.8 50 -13.4 7.9
12:45 1022 30.18 851 25.13 -5 23.1 51 -13.6 7.5
12:50 1022 30.18 851 25.13 -4.8 23.3 51 -13.5 7.6
12:55 1022 30.18 851 25.13 -4.8 23.4 51 -13.4 7.8
13:00 1021 30.15 851 25.13 -4.4 24.2 49 -13.5 7.6
13:05 1021 30.15 851 25.13 -3.7 25.3 48 -13.3 8
13:10 1021 30.15 851 25.13 -3.4 25.9 46 -13.5 7.7
13:15 1021 30.15 851 25.13 -3.4 26 47 -13.2 8.3
13:20 1021 30.15 850 25.1 -3.2 26.3 45 -13.6 7.6
13:25 1021 30.15 850 25.1 -2.9 26.8 46 -13 8.6
13:30 1021 30.15 850 25.1 -3.4 25.8 47 -13.1 8.3
13:35 1021 30.15 850 25.1 -3.8 25.1 47 -13.6 7.5
13:40 1021 30.15 850 25.1 -3.6 25.6 48 -13 8.6
13:45 1021 30.15 850 25.1 -4.3 24.3 48 -13.7 7.4
13:50 1021 30.15 850 25.1 -3.7 25.4 46 -13.7 7.3
13:55 1021 30.15 850 25.1 -3.6 25.5 46 -13.5 7.7
14:00 1021 30.15 850 25.1 -4.1 24.6 47 -13.9 6.9
14:05 1021 30.15 850 25.1 -4.4 24.1 49 -13.5 7.7
14:10 1021 30.15 850 25.1 -3.5 25.6 45 -13.8 7.1
14:15 1021 30.15 850 25.1 -2.8 27 42 -13.9 7
14:20 1020 30.12 850 25.1 -2.4 27.6 41 -14.1 6.7
14:25 1020 30.12 850 25.1 -2.6 27.3 44 -13.4 7.9
14:30 1020 30.12 850 25.1 -3.1 26.5 43 -13.9 6.9
14:35 1020 30.12 850 25.1 -2.9 26.8 43 -13.8 7.2
14:40 1020 30.12 850 25.1 -2.6 27.3 43 -13.7 7.4
14:45 1020 30.12 849 25.07 -2.4 27.6 44 -13 8.6
14:50 1020 30.12 849 25.07 -2.4 27.6 44 -13 8.7
14:55 1020 30.12 849 25.07 -2.8 27 46 -13 8.6
15:00 1020 30.12 849 25.07 -2.8 27 46 -13 8.7
15:05 1020 30.12 849 25.07 -2.8 27 46 -12.9 8.8
15:10 1020 30.12 849 25.07 -3.2 26.2 47 -13.1 8.5
15:15 1020 30.12 849 25.07 -3.2 26.3 46 -13.2 8.2
15:20 1020 30.12 849 25.07 -2.6 27.3 44 -13.1 8.4
15:25 1020 30.12 849 25.07 -2.3 27.8 45 -12.6 9.3
15:30 1020 30.12 849 25.07 -2.7 27.2 46 -12.9 8.8
15:35 1020 30.12 849 25.07 -2.6 27.3 46 -12.8 8.9
15:40 1020 30.12 849 25.07 -2.4 27.7 45 -12.7 9.1
15:45 1020 30.12 849 25.07 -2 28.3 44 -12.9 8.8
15:50 1020 30.12 849 25.07 -2.1 28.2 44 -12.9 8.8
15:55 1020 30.12 849 25.07 -1.7 28.9 43 -12.7 9.2
16:00 1020 30.12 849 25.07 -2 28.4 44 -12.8 8.9
16:05 1020 30.12 849 25.07 -2.3 27.9 44 -12.9 8.9
16:10 1020 30.12 849 25.07 -2.4 27.7 46 -12.6 9.4
16:15 1020 30.12 849 25.07 -2.7 27.2 45 -13 8.6
16:20 1020 30.12 849 25.07 -2.9 26.7 45 -13.3 8.1
16:25 1020 30.12 849 25.07 -3.3 26 45 -13.6 7.6
16:30 1020 30.12 849 25.07 -3.5 25.7 46 -13.6 7.5
16:35 1020 30.12 849 25.07 -3.6 25.5 46 -13.8 7.2
16:40 1020 30.12 849 25.07 -3.7 25.4 45 -13.9 7
16:45 1020 30.12 849 25.07 -4.1 24.7 46 -13.9 6.9
16:50 1020 30.12 849 25.07 -4.5 23.9 47 -14.3 6.3
16:55 1020 30.12 849 25.07 -4.7 23.5 48 -14 6.8
17:00 1020 30.12 849 25.07 -4.6 23.8 48 -14 6.8
17:05 1020 30.12 849 25.07 -4.2 24.5 46 -14.1 6.6
17:10 1020 30.12 849 25.07 -4.1 24.7 46 -14.1 6.7
17:15 1020 30.12 849 25.07 -4.3 24.3 47 -13.9 7
17:20 1020 30.12 849 25.07 -4.2 24.4 47 -13.8 7.1
17:25 1020 30.12 849 25.07 -4.7 23.5 50 -13.6 7.5
17:30 1020 30.12 849 25.07 -5 23 51 -13.7 7.4
17:35 1020 30.12 849 25.07 -5 22.9 49 -14.2 6.5
17:40 1020 30.12 849 25.07 -5.2 22.7 50 -14.2 6.5
17:45 1020 30.12 849 25.07 -5.5 22.2 49 -14.6 5.7
17:50 1020 30.12 849 25.07 -5.5 22.1 50 -14.3 6.3
17:55 1020 30.12 849 25.07 -6 21.2 52 -14.3 6.3
18:00 1019 30.09 849 25.07 -6.5 20.4 54 -14.4 6
18:05 1019 30.09 849 25.07 -6.6 20.2 58 -13.6 7.6
18:10 1020 30.12 849 25.07 -6.9 19.6 60 -13.5 7.8
18:15 1019 30.09 849 25.07 -7.1 19.3 60 -13.5 7.6
18:20 1020 30.12 849 25.07 -7.1 19.3 59 -13.7 7.3
18:25 1019 30.09 849 25.07 -6.9 19.6 59 -13.7 7.4
18:30 1020 30.12 849 25.07 -7 19.3 58 -14 6.8
18:35 1020 30.12 849 25.07 -7 19.5 58 -14 6.9
18:40 1020 30.12 849 25.07 -7.2 19 57 -14.3 6.3
18:45 1020 30.12 849 25.07 -7.5 18.5 59 -14.2 6.4
18:50 1020 30.12 849 25.07 -7.8 18 61 -14.1 6.7
18:55 1020 30.12 849 25.07 -8 17.6 63 -13.9 7
19:00 1020 30.12 849 25.07 -8 17.6 60 -14.4 6.1
19:05 1020 30.12 849 25.07 -8.2 17.3 60 -14.7 5.6
19:10 1020 30.12 849 25.07 -8.4 16.8 61 -14.6 5.8
19:15 1020 30.12 849 25.07 -8.8 16.1 62 -14.9 5.3
19:20 1020 30.12 849 25.07 -9.1 15.6 59 -15.7 3.8
19:25 1020 30.12 849 25.07 -9.2 15.5 57 -16.1 2.9
19:30 1020 30.12 849 25.07 -9.3 15.2 57 -16.3 2.7
19:35 1020 30.12 849 25.07 -9.3 15.3 58 -16 3.2
19:40 1020 30.12 849 25.07 -9.3 15.3 58 -16.1 3
19:45 1020 30.12 850 25.1 -9.2 15.5 57 -16.3 2.7
19:50 1020 30.12 850 25.1 -9.1 15.6 56 -16.3 2.6
19:55 1020 30.12 850 25.1 -9.5 14.9 59 -16.2 2.9
20:00 1020 30.12 850 25.1 -9.9 14.2 61 -16.1 3
20:05 1021 30.15 850 25.1 -10.1 13.8 61 -16.3 2.6
20:10 1021 30.15 850 25.1 -10 14 61 -16.1 3
20:15 1021 30.15 850 25.1 -9.7 14.5 60 -16 3.1
20:20 1021 30.15 850 25.1 -9.4 15 58 -16.2 2.9
20:25 1020 30.12 850 25.1 -9.6 14.6 60 -16 3.1
20:30 1020 30.12 850 25.1 -9.7 14.5 63 -15.5 4.2
20:35 1021 30.15 850 25.1 -9.3 15.2 62 -15.4 4.2
20:40 1021 30.15 850 25.1 -8.9 16 62 -14.9 5.2
20:45 1021 30.15 850 25.1 -8.8 16.2 62 -14.7 5.5
20:50 1021 30.15 850 25.1 -8.7 16.4 60 -15.1 4.8
20:55 1021 30.15 850 25.1 -8.6 16.6 61 -14.7 5.5
21:00 1021 30.15 850 25.1 -8.3 17 59 -15 5
21:05 1021 30.15 850 25.1 -8 17.6 59 -14.6 5.7
21:10 1021 30.15 850 25.1 -7.9 17.8 58 -14.7 5.5
21:15 1021 30.15 850 25.1 -8.1 17.5 58 -14.9 5.2
21:20 1021 30.15 850 25.1 -8.8 16.1 61 -15.1 4.8
21:25 1021 30.15 851 25.13 -9.7 14.6 67 -14.8 5.4
21:30 1021 30.15 850 25.1 -10 14.1 65 -15.4 4.3
21:35 1021 30.15 851 25.13 -9.7 14.5 68 -14.6 5.7
21:40 1021 30.15 851 25.13 -9.2 15.4 62 -15.3 4.5
21:45 1021 30.15 851 25.13 -10.1 13.9 65 -15.4 4.2
21:50 1021 30.15 851 25.13 -10.5 13 64 -16.1 3
21:55 1021 30.15 851 25.13 -10.5 13.1 65 -15.8 3.6
22:00 1021 30.15 851 25.13 -10.5 13 64 -16 3.1
22:05 1021 30.15 851 25.13 -10.3 13.4 64 -15.9 3.4
22:10 1022 30.18 851 25.13 -10.6 12.9 67 -15.7 3.8
22:15 1021 30.15 851 25.13 -9.8 14.4 61 -15.9 3.3
22:20 1021 30.15 851 25.13 -9.4 15.1 60 -15.7 3.7
22:25 1021 30.15 850 25.1 -9.4 15.1 59 -16 3.2
22:30 1021 30.15 850 25.1 -9.5 15 61 -15.7 3.7
22:35 1021 30.15 850 25.1 -9.9 14.1 62 -15.8 3.5
22:40 1021 30.15 850 25.1 -10.1 13.7 64 -15.8 3.6
22:45 1021 30.15 850 25.1 -9.4 15.1 62 -15.4 4.3
22:50 1021 30.15 850 25.1 -9.2 15.4 60 -15.7 3.7
22:55 1021 30.15 850 25.1 -8.9 16.1 57 -15.8 3.5
23:00 1021 30.15 850 25.1 -8.1 17.4 55 -15.6 3.9
23:05 1021 30.15 850 25.1 -7.6 18.2 54 -15.5 4.1
23:10 1021 30.15 850 25.1 -7.4 18.7 54 -15.3 4.5
23:15 1021 30.15 850 25.1 -7.1 19.3 52 -15.4 4.2
23:20 1021 30.15 850 25.1 -6.8 19.8 53 -14.8 5.3
23:25 1021 30.15 850 25.1 -6.7 20 52 -14.9 5.2
23:30 1021 30.15 850 25.1 -6.9 19.6 54 -14.6 5.7
23:35 1021 30.15 850 25.1 -6.6 20.2 53 -14.6 5.7
23:40 1021 30.15 851 25.13 -6.6 20.1 52 -14.9 5.2
23:45 1021 30.15 851 25.13 -6.2 20.9 52 -14.6 5.8
23:50 1021 30.15 851 25.13 -6 21.2 55 -13.7 7.4
23:55 1021 30.15 851 25.13 -6 21.2 52 -14.4 6
24:00 1021 30.15 851 25.13 -5.8 21.6 51 -14.5 5.9